Time;durP1;ratioP1;P1;durP2;ratioP2;P2;SDS_P1;SDS_P2;PMS_P1;PMS_P2;Temp;Humidity;BMP_temperature;BMP_pressure;BME280_temperature;BME280_humidity;BME280_pressure;Samples;Min_cycle;Max_cycle;Signal;HPM_P1;HPM_P2
2023/11/17 00:02:20;;;;;;;;;;;;;;;;;;5023262;28;19932;-53
2023/11/17 00:04:47;;;;;;;;;;;;;;;;;;5025718;28;20484;-52
2023/11/17 00:07:16;;;;;;;;;;;;;;;;;;5024901;28;20419;-53
2023/11/17 00:09:41;;;;;;;;;;;;;;;;;;5026377;28;19925;-55
2023/11/17 00:12:08;;;;;;;;;;;;;;;;;;5027069;28;19921;-58
2023/11/17 00:14:35;;;;;;;;;;;;;;;;;;5028899;28;19921;-55
2023/11/17 00:17:01;;;;;;;;;;;;;;;;;;5027697;28;20353;-55
2023/11/17 00:19:28;;;;;;;;;;;;;;;;;;5033945;28;19927;-53
2023/11/17 00:21:54;;;;;;;;;;;;;;;;;;5028181;28;19960;-55
2023/11/17 00:24:22;;;;;;;;;;;;;;;;;;5034917;28;19924;-57
2023/11/17 00:26:48;;;;;;;;;;;;;;;;;;5035177;28;19921;-52
2023/11/17 00:29:15;;;;;;;;;;;;;;;;;;5035172;28;19921;-54
2023/11/17 00:31:41;;;;;;;;;;;;;;;;;;5035350;28;20300;-59
2023/11/17 00:34:08;;;;;;;;;;;;;;;;;;5035443;28;19921;-54
2023/11/17 00:36:34;;;;;;;;;;;;;;;;;;5034531;28;20023;-53
2023/11/17 00:39:02;;;;;;;;;;;;;;;;;;5031283;28;19925;-55
2023/11/17 00:41:30;;;;;;;;;;;;;;;;;;5034873;28;19928;-55
2023/11/17 00:43:56;;;;;;;;;;;;;;;;;;5034618;28;20003;-53
2023/11/17 00:46:22;;;;;;;;;;;;;;;;;;5033898;28;20304;-55
2023/11/17 00:48:49;;;;;;;;;;;;;;;;;;5035961;28;19921;-52
2023/11/17 00:51:18;;;;;;;;;;;;;;;;;;5035510;28;19927;-56
2023/11/17 00:53:45;;;;;;;;;;;;;;;;;;5035098;28;20380;-55
2023/11/17 00:56:11;;;;;;;;;;;;;;;;;;5035171;28;19925;-54
2023/11/17 00:58:39;;;;;;;;;;;;;;;;;;5034282;28;20331;-52
2023/11/17 01:01:06;;;;;;;;;;;;;;;;;;5034971;28;19920;-55
2023/11/17 01:03:33;;;;;;;;;;;;;;;;;;5034011;28;20273;-56
2023/11/17 01:05:59;;;;;;;;;;;;;;;;;;5033300;28;20364;-52
2023/11/17 01:08:26;;;;;;;;;;;;;;;;;;5032337;28;19968;-53
2023/11/17 01:10:53;;;;;;;;;;;;;;;;;;5033548;28;19928;-55
2023/11/17 01:13:20;;;;;;;;;;;;;;;;;;5033293;28;19921;-56
2023/11/17 01:15:48;;;;;;;;;;;;;;;;;;5033030;28;20303;-55
2023/11/17 01:18:15;;;;;;;;;;;;;;;;;;5032664;28;20384;-53
2023/11/17 01:20:41;;;;;;;;;;;;;;;;;;5032833;28;19927;-57
2023/11/17 01:23:08;;;;;;;;;;;;;;;;;;5028951;28;19983;-53
2023/11/17 01:25:35;;;;;;;;;;;;;;;;;;5030571;28;19943;-52
2023/11/17 01:28:03;;;;;;;;;;;;;;;;;;5032894;28;20351;-52
2023/11/17 01:30:30;;;;;;;;;;;;;;;;;;5032298;28;19931;-54
2023/11/17 01:32:58;;;;;;;;;;;;;;;;;;5028934;28;19921;-54
2023/11/17 01:35:24;;;;;;;;;;;;;;;;;;5032504;28;20464;-53
2023/11/17 01:37:51;;;;;;;;;;;;;;;;;;5032653;28;19994;-52
2023/11/17 01:40:18;;;;;;;;;;;;;;;;;;5033071;28;20640;-54
2023/11/17 01:42:44;;;;;;;;;;;;;;;;;;5032768;28;19944;-59
2023/11/17 01:45:11;;;;;;;;;;;;;;;;;;5035127;28;19933;-53
2023/11/17 01:47:38;;;;;;;;;;;;;;;;;;5032249;28;19921;-56
2023/11/17 01:50:09;;;;;;;;;;;;;;;;;;5032642;28;19968;-53
2023/11/17 01:52:35;;;;;;;;;;;;;;;;;;5032102;28;20000;-52
2023/11/17 01:55:05;;;;;;;;;;;;;;;;;;5032454;28;19924;-51
2023/11/17 01:57:35;;;;;;;;;;;;;;;;;;5032476;28;19920;-57
2023/11/17 02:00:06;;;;;;;;;;;;;;;;;;5032320;28;20345;-54
2023/11/17 02:02:33;;;;;;;;;;;;;;;;;;5032228;28;19921;-53
2023/11/17 02:04:59;;;;;;;;;;;;;;;;;;5032418;28;19921;-58
2023/11/17 02:07:32;;;;;;;;;;;;;;;;;;5028680;28;20035;-53
2023/11/17 02:10:06;;;;;;;;;;;;;;;;;;5033071;28;20291;-53
2023/11/17 02:12:49;;;;;;;;;;;;;;;;;;5089056;28;19976;-52
2023/11/17 02:15:16;;;;;;;;;;;;;;;;;;5075646;28;19924;-51
2023/11/17 02:17:44;;;;;;;;;;;;;;;;;;5075951;28;20267;-55
2023/11/17 02:20:12;;;;;;;;;;;;;;;;;;5087740;28;19931;-56
2023/11/17 02:22:42;;;;;;;;;;;;;;;;;;5085995;28;20326;-58
2023/11/17 02:25:11;;;;;;;;;;;;;;;;;;5081560;28;20318;-56
2023/11/17 02:27:45;;;;;;;;;;;;;;;;;;5086570;28;19991;-52
2023/11/17 02:30:19;;;;;;;;;;;;;;;;;;5082622;28;20368;-52
2023/11/17 02:32:46;;;;;;;;;;;;;;;;;;5085541;28;20031;-55
2023/11/17 02:35:15;;;;;;;;;;;;;;;;;;5086882;28;20406;-54
2023/11/17 02:37:42;;;;;;;;;;;;;;;;;;5080072;28;20295;-51
2023/11/17 02:40:18;;;;;;;;;;;;;;;;;;5079587;28;20374;-55
2023/11/17 02:42:45;;;;;;;;;;;;;;;;;;5078002;28;19931;-57
2023/11/17 02:45:19;;;;;;;;;;;;;;;;;;5074641;28;20369;-56
2023/11/17 02:47:48;;;;;;;;;;;;;;;;;;5068489;28;19924;-53
2023/11/17 02:50:18;;;;;;;;;;;;;;;;;;5068511;28;20311;-55
2023/11/17 02:52:54;;;;;;;;;;;;;;;;;;5069988;28;19994;-52
2023/11/17 02:55:22;;;;;;;;;;;;;;;;;;5078139;28;19973;-52
2023/11/17 02:57:49;;;;;;;;;;;;;;;;;;5087768;28;19925;-55
2023/11/17 03:00:15;;;;;;;;;;;;;;;;;;5076426;28;19925;-54
2023/11/17 03:02:43;;;;;;;;;;;;;;;;;;5078391;28;19925;-56
2023/11/17 03:05:16;;;;;;;;;;;;;;;;;;5087668;28;19979;-51
2023/11/17 03:07:42;;;;;;;;;;;;;;;;;;5088243;28;19924;-55
2023/11/17 03:10:09;;;;;;;;;;;;;;;;;;5088685;28;19932;-55
2023/11/17 03:12:36;;;;;;;;;;;;;;;;;;5099513;28;19924;-56
2023/11/17 03:15:02;;;;;;;;;;;;;;;;;;5109032;28;20165;-55
2023/11/17 03:17:30;;;;;;;;;;;;;;;;;;5108237;28;19924;-57
2023/11/17 03:19:56;;;;;;;;;;;;;;;;;;5108392;28;19928;-54
2023/11/17 03:22:24;;;;;;;;;;;;;;;;;;5098553;28;20375;-54
2023/11/17 03:24:50;;;;;;;;;;;;;;;;;;5094402;28;19924;-53
2023/11/17 03:27:17;;;;;;;;;;;;;;;;;;5092300;28;19975;-51
2023/11/17 03:29:46;;;;;;;;;;;;;;;;;;5094447;28;19934;-57
2023/11/17 03:32:12;;;;;;;;;;;;;;;;;;5092096;28;20330;-52
2023/11/17 03:34:40;;;;;;;;;;;;;;;;;;5089689;28;19924;-54
2023/11/17 03:37:07;;;;;;;;;;;;;;;;;;5073479;28;19930;-53
2023/11/17 03:39:40;;;;;;;;;;;;;;;;;;5082891;28;20298;-54
2023/11/17 03:42:09;;;;;;;;;;;;;;;;;;5075097;28;19929;-55
2023/11/17 03:44:36;;;;;;;;;;;;;;;;;;5075453;28;19924;-54
2023/11/17 03:47:05;;;;;;;;;;;;;;;;;;5094303;28;19924;-54
2023/11/17 03:49:32;;;;;;;;;;;;;;;;;;5094228;28;19924;-53
2023/11/17 03:51:58;;;;;;;;;;;;;;;;;;5077659;28;20395;-54
2023/11/17 03:54:25;;;;;;;;;;;;;;;;;;5084788;28;20299;-54
2023/11/17 03:56:54;;;;;;;;;;;;;;;;;;5093834;28;19924;-53
2023/11/17 03:59:21;;;;;;;;;;;;;;;;;;5093999;28;19924;-56
2023/11/17 04:01:48;;;;;;;;;;;;;;;;;;5083632;28;19948;-56
2023/11/17 04:04:17;;;;;;;;;;;;;;;;;;5083747;28;19931;-54
2023/11/17 04:06:43;;;;;;;;;;;;;;;;;;5085306;28;19924;-55
2023/11/17 04:09:15;;;;;;;;;;;;;;;;;;5093924;28;19930;-55
2023/11/17 04:11:42;;;;;;;;;;;;;;;;;;5093437;28;19924;-54
2023/11/17 04:14:10;;;;;;;;;;;;;;;;;;5082396;28;19928;-53
2023/11/17 04:16:37;;;;;;;;;;;;;;;;;;5090554;28;20409;-55
2023/11/17 04:19:03;;;;;;;;;;;;;;;;;;5089998;28;20014;-55
2023/11/17 04:21:30;;;;;;;;;;;;;;;;;;5092823;28;19924;-56
2023/11/17 04:23:56;;;;;;;;;;;;;;;;;;5084936;28;19928;-55
2023/11/17 04:26:23;;;;;;;;;;;;;;;;;;5084523;28;20375;-55
2023/11/17 04:28:49;;;;;;;;;;;;;;;;;;5093580;28;20446;-51
2023/11/17 04:31:18;;;;;;;;;;;;;;;;;;5093398;28;19924;-55
2023/11/17 04:33:44;;;;;;;;;;;;;;;;;;5091324;28;19963;-56
2023/11/17 04:36:11;;;;;;;;;;;;;;;;;;5091713;28;19928;-53
2023/11/17 04:38:38;;;;;;;;;;;;;;;;;;5093247;28;19930;-55
2023/11/17 04:41:04;;;;;;;;;;;;;;;;;;5086289;28;20379;-55
2023/11/17 04:43:31;;;;;;;;;;;;;;;;;;5088723;28;19986;-55
2023/11/17 04:45:57;;;;;;;;;;;;;;;;;;5084202;28;19924;-55
2023/11/17 04:48:25;;;;;;;;;;;;;;;;;;5082209;28;19924;-56
2023/11/17 04:50:52;;;;;;;;;;;;;;;;;;5091126;28;19932;-55
2023/11/17 04:53:18;;;;;;;;;;;;;;;;;;5086542;28;19924;-54
2023/11/17 04:55:47;;;;;;;;;;;;;;;;;;5086849;28;19954;-54
2023/11/17 04:58:15;;;;;;;;;;;;;;;;;;5092666;28;19924;-52
2023/11/17 05:00:41;;;;;;;;;;;;;;;;;;5090528;28;20460;-55
2023/11/17 05:03:08;;;;;;;;;;;;;;;;;;5089462;28;19932;-56
2023/11/17 05:05:36;;;;;;;;;;;;;;;;;;5086096;28;20391;-57
2023/11/17 05:08:02;;;;;;;;;;;;;;;;;;5092113;28;19930;-53
2023/11/17 05:10:29;;;;;;;;;;;;;;;;;;5076755;28;19931;-53
2023/11/17 05:12:55;;;;;;;;;;;;;;;;;;5082640;28;20402;-54
2023/11/17 05:15:22;;;;;;;;;;;;;;;;;;5087039;28;20276;-52
2023/11/17 05:17:49;;;;;;;;;;;;;;;;;;5084343;28;19981;-54
2023/11/17 05:20:16;;;;;;;;;;;;;;;;;;5083971;28;19924;-55
2023/11/17 05:22:45;;;;;;;;;;;;;;;;;;5090758;28;19924;-56
2023/11/17 05:25:12;;;;;;;;;;;;;;;;;;5086184;28;19947;-55
2023/11/17 05:27:38;;;;;;;;;;;;;;;;;;5084271;28;20011;-54
2023/11/17 05:30:06;;;;;;;;;;;;;;;;;;5086333;28;19930;-54
2023/11/17 05:32:32;;;;;;;;;;;;;;;;;;5081900;28;20360;-57
2023/11/17 05:35:00;;;;;;;;;;;;;;;;;;5079099;28;19932;-55
2023/11/17 05:37:26;;;;;;;;;;;;;;;;;;5090626;28;19942;-53
2023/11/17 05:39:54;;;;;;;;;;;;;;;;;;5092310;28;19935;-52
2023/11/17 05:42:21;;;;;;;;;;;;;;;;;;5090380;28;19969;-55
2023/11/17 05:44:47;;;;;;;;;;;;;;;;;;5089393;28;19963;-55
2023/11/17 05:47:14;;;;;;;;;;;;;;;;;;5077061;28;19939;-54
2023/11/17 05:49:43;;;;;;;;;;;;;;;;;;5087978;28;19928;-55
2023/11/17 05:52:09;;;;;;;;;;;;;;;;;;5085017;28;20319;-56
2023/11/17 05:54:39;;;;;;;;;;;;;;;;;;5084493;28;20328;-56
2023/11/17 05:57:08;;;;;;;;;;;;;;;;;;5091357;28;19927;-55
2023/11/17 05:59:35;;;;;;;;;;;;;;;;;;5091890;28;19975;-55
2023/11/17 06:02:03;;;;;;;;;;;;;;;;;;5087471;28;19943;-55
2023/11/17 06:04:29;;;;;;;;;;;;;;;;;;5080903;28;19936;-56
2023/11/17 06:06:56;;;;;;;;;;;;;;;;;;5084834;28;19931;-55
2023/11/17 06:09:22;;;;;;;;;;;;;;;;;;5092064;28;19936;-52
2023/11/17 06:11:49;;;;;;;;;;;;;;;;;;5091795;28;19924;-53
2023/11/17 06:14:17;;;;;;;;;;;;;;;;;;5085667;28;19924;-57
2023/11/17 06:16:43;;;;;;;;;;;;;;;;;;5086762;28;19924;-56
2023/11/17 06:19:12;;;;;;;;;;;;;;;;;;5089878;28;20467;-55
2023/11/17 06:21:38;;;;;;;;;;;;;;;;;;5085535;28;19924;-52
2023/11/17 06:24:05;;;;;;;;;;;;;;;;;;5091405;28;19930;-54
2023/11/17 06:26:31;;;;;;;;;;;;;;;;;;5089085;28;20287;-54
2023/11/17 06:28:59;;;;;;;;;;;;;;;;;;5083540;28;19924;-55
2023/11/17 06:31:28;;;;;;;;;;;;;;;;;;5074583;28;19924;-54
2023/11/17 06:33:54;;;;;;;;;;;;;;;;;;5082133;28;19959;-52
2023/11/17 06:36:21;;;;;;;;;;;;;;;;;;5086260;28;19940;-53
2023/11/17 06:38:47;;;;;;;;;;;;;;;;;;5086129;28;19950;-56
2023/11/17 06:41:15;;;;;;;;;;;;;;;;;;5088903;28;19928;-54
2023/11/17 06:43:41;;;;;;;;;;;;;;;;;;5086191;28;19935;-55
2023/11/17 06:46:07;;;;;;;;;;;;;;;;;;5087071;28;19924;-56
2023/11/17 06:48:37;;;;;;;;;;;;;;;;;;5087604;28;19924;-54
2023/11/17 06:51:05;;;;;;;;;;;;;;;;;;5076714;28;20299;-55
2023/11/17 06:53:32;;;;;;;;;;;;;;;;;;5074822;28;20338;-55
2023/11/17 06:55:59;;;;;;;;;;;;;;;;;;5079602;28;19974;-56
2023/11/17 06:58:26;;;;;;;;;;;;;;;;;;5089303;28;19924;-56
2023/11/17 07:00:53;;;;;;;;;;;;;;;;;;5088075;28;20388;-54
2023/11/17 07:03:21;;;;;;;;;;;;;;;;;;5086355;28;19974;-59
2023/11/17 07:05:49;;;;;;;;;;;;;;;;;;5080152;28;20299;-56
2023/11/17 07:08:17;;;;;;;;;;;;;;;;;;5075375;28;19935;-54
2023/11/17 07:10:44;;;;;;;;;;;;;;;;;;5090644;28;19924;-54
2023/11/17 07:13:10;;;;;;;;;;;;;;;;;;5081539;28;20297;-55
2023/11/17 07:15:40;;;;;;;;;;;;;;;;;;5075464;28;20439;-56
2023/11/17 07:18:06;;;;;;;;;;;;;;;;;;5087860;28;19924;-56
2023/11/17 07:20:33;;;;;;;;;;;;;;;;;;5094919;28;19930;-54
2023/11/17 07:23:01;;;;;;;;;;;;;;;;;;5094833;28;19960;-52
2023/11/17 07:25:28;;;;;;;;;;;;;;;;;;5092114;28;20015;-52
2023/11/17 07:27:55;;;;;;;;;;;;;;;;;;5089314;28;19930;-53
2023/11/17 07:30:23;;;;;;;;;;;;;;;;;;5095047;28;19960;-56
2023/11/17 07:32:50;;;;;;;;;;;;;;;;;;5094616;28;19927;-55
2023/11/17 07:35:16;;;;;;;;;;;;;;;;;;5094198;28;19930;-54
2023/11/17 07:37:44;;;;;;;;;;;;;;;;;;5089924;28;20619;-54
2023/11/17 07:40:13;;;;;;;;;;;;;;;;;;5094663;28;19924;-56
2023/11/17 07:42:40;;;;;;;;;;;;;;;;;;5094648;28;20383;-54
2023/11/17 07:45:07;;;;;;;;;;;;;;;;;;5094568;28;19924;-53
2023/11/17 07:47:36;;;;;;;;;;;;;;;;;;5086736;28;19971;-57
2023/11/17 07:50:07;;;;;;;;;;;;;;;;;;5086528;28;19928;-56
2023/11/17 07:52:33;;;;;;;;;;;;;;;;;;5086588;28;19972;-56
2023/11/17 07:55:00;;;;;;;;;;;;;;;;;;5086384;28;19930;-55
2023/11/17 07:57:28;;;;;;;;;;;;;;;;;;5081096;28;20029;-56
2023/11/17 07:59:54;;;;;;;;;;;;;;;;;;5084949;28;19939;-56
2023/11/17 08:02:21;;;;;;;;;;;;;;;;;;5083778;28;19970;-52
2023/11/17 08:04:47;;;;;;;;;;;;;;;;;;5087998;28;20397;-54
2023/11/17 08:07:14;;;;;;;;;;;;;;;;;;5091967;28;19978;-52
2023/11/17 08:09:41;;;;;;;;;;;;;;;;;;5089836;28;19924;-59
2023/11/17 08:12:08;;;;;;;;;;;;;;;;;;5089369;28;20011;-56
2023/11/17 08:14:36;;;;;;;;;;;;;;;;;;5087775;28;19934;-56
2023/11/17 08:17:03;;;;;;;;;;;;;;;;;;5082973;28;20327;-55
2023/11/17 08:19:29;;;;;;;;;;;;;;;;;;5076461;28;19925;-57
2023/11/17 08:21:55;;;;;;;;;;;;;;;;;;5079880;28;20350;-52
2023/11/17 08:24:22;;;;;;;;;;;;;;;;;;5081693;28;20096;-56
2023/11/17 08:26:50;;;;;;;;;;;;;;;;;;5081053;28;20380;-53
2023/11/17 08:29:18;;;;;;;;;;;;;;;;;;5081140;28;19924;-56
2023/11/17 08:31:45;;;;;;;;;;;;;;;;;;5081457;28;20011;-56
2023/11/17 08:34:12;;;;;;;;;;;;;;;;;;5081820;28;19939;-54
2023/11/17 08:36:38;;;;;;;;;;;;;;;;;;5078101;28;19924;-56
2023/11/17 08:39:08;;;;;;;;;;;;;;;;;;5086466;28;19924;-56
2023/11/17 08:41:35;;;;;;;;;;;;;;;;;;5086462;28;19978;-56
2023/11/17 08:44:00;;;;;;;;;;;;;;;;;;5084185;28;20349;-56
2023/11/17 08:46:29;;;;;;;;;;;;;;;;;;5083545;28;20016;-55
2023/11/17 08:48:59;;;;;;;;;;;;;;;;;;5085705;28;20284;-53
2023/11/17 08:51:26;;;;;;;;;;;;;;;;;;5087211;28;19941;-54
2023/11/17 08:53:53;;;;;;;;;;;;;;;;;;5083742;28;20468;-55
2023/11/17 08:56:19;;;;;;;;;;;;;;;;;;5086785;28;19924;-56
2023/11/17 08:58:46;;;;;;;;;;;;;;;;;;5084082;28;20298;-57
2023/11/17 09:01:13;;;;;;;;;;;;;;;;;;5079695;28;19929;-58
2023/11/17 09:03:39;;;;;;;;;;;;;;;;;;5078725;28;19930;-59
2023/11/17 09:06:08;;;;;;;;;;;;;;;;;;5075194;28;19947;-65
2023/11/17 09:08:34;;;;;;;;;;;;;;;;;;5081487;28;19931;-65
2023/11/17 09:11:00;;;;;;;;;;;;;;;;;;5079489;28;19967;-58
2023/11/17 09:13:28;;;;;;;;;;;;;;;;;;5080169;28;20292;-58
2023/11/17 09:15:55;;;;;;;;;;;;;;;;;;5082746;28;19952;-57
2023/11/17 09:18:21;;;;;;;;;;;;;;;;;;5084115;28;20318;-59
2023/11/17 09:20:48;;;;;;;;;;;;;;;;;;5088111;28;19930;-63
2023/11/17 09:23:17;;;;;;;;;;;;;;;;;;5086936;28;20340;-63
2023/11/17 09:25:43;;;;;;;;;;;;;;;;;;5087080;28;20039;-60
2023/11/17 09:28:10;;;;;;;;;;;;;;;;;;5086879;28;19924;-58
2023/11/17 09:30:37;;;;;;;;;;;;;;;;;;5079786;28;20037;-57
2023/11/17 09:33:03;;;;;;;;;;;;;;;;;;5083715;28;19928;-55
2023/11/17 09:35:31;;;;;;;;;;;;;;;;;;5089883;28;20435;-55
2023/11/17 09:37:58;;;;;;;;;;;;;;;;;;5081885;28;20003;-55
2023/11/17 09:40:28;;;;;;;;;;;;;;;;;;5089159;28;19931;-56
2023/11/17 09:42:57;;;;;;;;;;;;;;;;;;5083505;28;20062;-54
2023/11/17 09:45:25;;;;;;;;;;;;;;;;;;5085774;28;20345;-52
2023/11/17 09:47:52;;;;;;;;;;;;;;;;;;5077592;28;19939;-56
2023/11/17 09:50:20;;;;;;;;;;;;;;;;;;5086063;28;19924;-56
2023/11/17 09:52:47;;;;;;;;;;;;;;;;;;5085043;28;19930;-52
2023/11/17 09:55:14;;;;;;;;;;;;;;;;;;5084708;28;19924;-56
2023/11/17 09:57:45;;;;;;;;;;;;;;;;;;5079121;28;19932;-53
2023/11/17 10:00:17;;;;;;;;;;;;;;;;;;5086650;28;19929;-54
2023/11/17 10:02:47;;;;;;;;;;;;;;;;;;5085883;28;20023;-54
2023/11/17 10:05:13;;;;;;;;;;;;;;;;;;5079353;28;20418;-56
2023/11/17 10:07:40;;;;;;;;;;;;;;;;;;5084938;28;20006;-54
2023/11/17 10:10:07;;;;;;;;;;;;;;;;;;5088740;28;19924;-56
2023/11/17 10:12:34;;;;;;;;;;;;;;;;;;5084086;28;20015;-54
2023/11/17 10:15:06;;;;;;;;;;;;;;;;;;5082460;28;19979;-57
2023/11/17 10:17:33;;;;;;;;;;;;;;;;;;5083699;28;19979;-54
2023/11/17 10:20:00;;;;;;;;;;;;;;;;;;5082073;28;19930;-54
2023/11/17 10:22:28;;;;;;;;;;;;;;;;;;5082459;28;19930;-54
2023/11/17 10:24:57;;;;;;;;;;;;;;;;;;5080133;28;19943;-55
2023/11/17 10:27:24;;;;;;;;;;;;;;;;;;5086425;28;19931;-55
2023/11/17 10:29:50;;;;;;;;;;;;;;;;;;5080359;28;20393;-56
2023/11/17 10:32:19;;;;;;;;;;;;;;;;;;5084247;28;19924;-57
2023/11/17 10:35:01;;;;;;;;;;;;;;;;;;5086313;28;20287;-55
2023/11/17 10:37:34;;;;;;;;;;;;;;;;;;5085900;28;19931;-55
2023/11/17 10:40:00;;;;;;;;;;;;;;;;;;5079019;28;20399;-55
2023/11/17 10:42:27;;;;;;;;;;;;;;;;;;5091858;28;19924;-55
2023/11/17 10:44:53;;;;;;;;;;;;;;;;;;5087598;28;19974;-55
2023/11/17 10:47:21;;;;;;;;;;;;;;;;;;5094752;28;19930;-55
2023/11/17 10:50:07;;;;;;;;;;;;;;;;;;5076771;28;19931;-54
2023/11/17 10:52:33;;;;;;;;;;;;;;;;;;5090212;28;19924;-56
2023/11/17 10:54:59;;;;;;;;;;;;;;;;;;5085778;28;20323;-54
2023/11/17 10:57:26;;;;;;;;;;;;;;;;;;5074913;28;20011;-55
2023/11/17 10:59:53;;;;;;;;;;;;;;;;;;5076088;28;20007;-54
2023/11/17 11:02:22;;;;;;;;;;;;;;;;;;5091041;28;20106;-57
2023/11/17 11:04:49;;;;;;;;;;;;;;;;;;5094034;28;19924;-53
2023/11/17 11:07:15;;;;;;;;;;;;;;;;;;5092304;28;20398;-53
2023/11/17 11:09:42;;;;;;;;;;;;;;;;;;5086274;28;19931;-53
2023/11/17 11:12:12;;;;;;;;;;;;;;;;;;5091268;28;20094;-55
2023/11/17 11:14:40;;;;;;;;;;;;;;;;;;5090951;28;19924;-55
2023/11/17 11:17:09;;;;;;;;;;;;;;;;;;5094897;28;19924;-53
2023/11/17 11:19:38;;;;;;;;;;;;;;;;;;5089392;28;19928;-56
2023/11/17 11:22:07;;;;;;;;;;;;;;;;;;5085954;28;19935;-56
2023/11/17 11:24:35;;;;;;;;;;;;;;;;;;5085147;28;20318;-55
2023/11/17 11:27:02;;;;;;;;;;;;;;;;;;5078683;28;19924;-54
2023/11/17 11:29:29;;;;;;;;;;;;;;;;;;5087405;28;20016;-53
2023/11/17 11:31:56;;;;;;;;;;;;;;;;;;5093323;28;19936;-56
2023/11/17 11:34:23;;;;;;;;;;;;;;;;;;5080901;28;19924;-54
2023/11/17 11:36:51;;;;;;;;;;;;;;;;;;5084842;28;20314;-54
2023/11/17 11:39:18;;;;;;;;;;;;;;;;;;5084810;28;19994;-55
2023/11/17 11:41:45;;;;;;;;;;;;;;;;;;5087106;28;19929;-55
2023/11/17 11:44:12;;;;;;;;;;;;;;;;;;5078056;28;19989;-56
2023/11/17 11:46:39;;;;;;;;;;;;;;;;;;5081558;28;20419;-55
2023/11/17 11:49:07;;;;;;;;;;;;;;;;;;5089749;28;19928;-52
2023/11/17 11:51:37;;;;;;;;;;;;;;;;;;5084883;28;19924;-56
2023/11/17 11:54:08;;;;;;;;;;;;;;;;;;5075873;28;20003;-53
2023/11/17 11:56:36;;;;;;;;;;;;;;;;;;5079529;28;20020;-56
2023/11/17 11:59:05;;;;;;;;;;;;;;;;;;5090620;28;20432;-54
2023/11/17 12:01:33;;;;;;;;;;;;;;;;;;5082451;28;20299;-56
2023/11/17 12:04:01;;;;;;;;;;;;;;;;;;5085845;28;20383;-55
2023/11/17 12:06:28;;;;;;;;;;;;;;;;;;5078578;28;19924;-56
2023/11/17 12:08:56;;;;;;;;;;;;;;;;;;5083457;28;19928;-56
2023/11/17 12:11:24;;;;;;;;;;;;;;;;;;5083837;28;19924;-55
2023/11/17 12:13:52;;;;;;;;;;;;;;;;;;5083194;28;20335;-55
2023/11/17 12:16:20;;;;;;;;;;;;;;;;;;5084815;28;20360;-55
2023/11/17 12:18:48;;;;;;;;;;;;;;;;;;5077527;28;20018;-54
2023/11/17 12:21:19;;;;;;;;;;;;;;;;;;5085268;28;20276;-53
2023/11/17 12:23:48;;;;;;;;;;;;;;;;;;5087365;28;19928;-52
2023/11/17 12:26:14;;;;;;;;;;;;;;;;;;5083731;28;19924;-54
2023/11/17 12:28:44;;;;;;;;;;;;;;;;;;5082399;28;19931;-56
2023/11/17 12:31:11;;;;;;;;;;;;;;;;;;5085227;28;20379;-55
2023/11/17 12:33:38;;;;;;;;;;;;;;;;;;5081173;28;19924;-56
2023/11/17 12:36:07;;;;;;;;;;;;;;;;;;5082999;28;20356;-53
2023/11/17 12:38:33;;;;;;;;;;;;;;;;;;5083782;28;20018;-56
2023/11/17 12:41:01;;;;;;;;;;;;;;;;;;5084753;28;19928;-51
2023/11/17 12:43:29;;;;;;;;;;;;;;;;;;5084359;28;19924;-53
2023/11/17 12:46:00;;;;;;;;;;;;;;;;;;5083278;28;20604;-54
2023/11/17 12:48:27;;;;;;;;;;;;;;;;;;5084280;28;20367;-53
2023/11/17 12:50:56;;;;;;;;;;;;;;;;;;5084981;28;19978;-55
2023/11/17 12:53:23;;;;;;;;;;;;;;;;;;5084603;28;19978;-56
2023/11/17 12:55:51;;;;;;;;;;;;;;;;;;5083776;28;20334;-54
2023/11/17 12:58:19;;;;;;;;;;;;;;;;;;5085259;28;19959;-55
2023/11/17 13:00:46;;;;;;;;;;;;;;;;;;5087548;28;20429;-52
2023/11/17 13:03:15;;;;;;;;;;;;;;;;;;5079748;28;20373;-53
2023/11/17 13:05:42;;;;;;;;;;;;;;;;;;5081010;28;19928;-53
2023/11/17 13:08:08;;;;;;;;;;;;;;;;;;5079905;28;19924;-56
2023/11/17 13:10:35;;;;;;;;;;;;;;;;;;5080546;28;19928;-57
2023/11/17 13:13:06;;;;;;;;;;;;;;;;;;5079493;28;19939;-56
2023/11/17 13:15:33;;;;;;;;;;;;;;;;;;5077373;28;19947;-52
2023/11/17 13:17:59;;;;;;;;;;;;;;;;;;5077788;28;19924;-55
2023/11/17 13:20:30;;;;;;;;;;;;;;;;;;5079806;28;19925;-56
2023/11/17 13:22:57;;;;;;;;;;;;;;;;;;5083993;28;20007;-56
2023/11/17 13:25:25;;;;;;;;;;;;;;;;;;5079645;28;20023;-53
2023/11/17 13:27:52;;;;;;;;;;;;;;;;;;5085684;28;19924;-55
2023/11/17 13:30:19;;;;;;;;;;;;;;;;;;5083736;28;19924;-54
2023/11/17 13:32:53;;;;;;;;;;;;;;;;;;5082342;28;19932;-57
2023/11/17 13:35:20;;;;;;;;;;;;;;;;;;5077536;28;19924;-56
2023/11/17 13:37:47;;;;;;;;;;;;;;;;;;5077618;28;19924;-53
2023/11/17 13:40:23;;;;;;;;;;;;;;;;;;5091005;28;20011;-53
2023/11/17 13:42:49;;;;;;;;;;;;;;;;;;5083286;28;20323;-56
2023/11/17 13:45:16;;;;;;;;;;;;;;;;;;5073822;28;19928;-53
2023/11/17 13:47:45;;;;;;;;;;;;;;;;;;5084760;28;19930;-50
2023/11/17 13:50:15;;;;;;;;;;;;;;;;;;5085211;28;20429;-55
2023/11/17 13:52:42;;;;;;;;;;;;;;;;;;5083518;28;20313;-56
2023/11/17 13:55:12;;;;;;;;;;;;;;;;;;5079622;28;19924;-56
2023/11/17 13:57:39;;;;;;;;;;;;;;;;;;5086107;28;20330;-56
2023/11/17 14:00:10;;;;;;;;;;;;;;;;;;5081104;28;20023;-55
2023/11/17 14:02:37;;;;;;;;;;;;;;;;;;5078467;28;20685;-55
2023/11/17 14:05:06;;;;;;;;;;;;;;;;;;5080166;28;19935;-56
2023/11/17 14:07:34;;;;;;;;;;;;;;;;;;5081199;28;19924;-53
2023/11/17 14:10:00;;;;;;;;;;;;;;;;;;5076739;28;19925;-55
2023/11/17 14:12:28;;;;;;;;;;;;;;;;;;5079674;28;20275;-57
2023/11/17 14:14:54;;;;;;;;;;;;;;;;;;5088481;28;20403;-53
2023/11/17 14:17:21;;;;;;;;;;;;;;;;;;5086389;28;19985;-54
2023/11/17 14:19:48;;;;;;;;;;;;;;;;;;5084976;28;19951;-53
2023/11/17 14:22:14;;;;;;;;;;;;;;;;;;5086984;28;19971;-54
2023/11/17 14:24:41;;;;;;;;;;;;;;;;;;5080538;28;20418;-52
2023/11/17 14:27:07;;;;;;;;;;;;;;;;;;5075711;28;19937;-56
2023/11/17 14:29:39;;;;;;;;;;;;;;;;;;5079225;28;19931;-56
2023/11/17 14:32:06;;;;;;;;;;;;;;;;;;5086069;28;20026;-53
2023/11/17 14:34:32;;;;;;;;;;;;;;;;;;5077504;28;19934;-55
2023/11/17 14:36:59;;;;;;;;;;;;;;;;;;5087733;28;19930;-54
2023/11/17 14:39:29;;;;;;;;;;;;;;;;;;5085210;28;19935;-56
2023/11/17 14:41:55;;;;;;;;;;;;;;;;;;5075309;28;19947;-54
2023/11/17 14:44:22;;;;;;;;;;;;;;;;;;5073537;28;20015;-56
2023/11/17 14:46:50;;;;;;;;;;;;;;;;;;5076196;28;19929;-54
2023/11/17 14:49:17;;;;;;;;;;;;;;;;;;5076359;28;20015;-56
2023/11/17 14:51:44;;;;;;;;;;;;;;;;;;5083316;28;19924;-55
2023/11/17 14:54:10;;;;;;;;;;;;;;;;;;5091133;28;19924;-54
2023/11/17 14:56:37;;;;;;;;;;;;;;;;;;5083084;28;19932;-55
2023/11/17 14:59:03;;;;;;;;;;;;;;;;;;5081718;28;19931;-56
2023/11/17 15:01:30;;;;;;;;;;;;;;;;;;5087185;28;19931;-55
2023/11/17 15:03:58;;;;;;;;;;;;;;;;;;5085587;28;20401;-54
2023/11/17 15:06:26;;;;;;;;;;;;;;;;;;5074895;28;19986;-55
2023/11/17 15:08:53;;;;;;;;;;;;;;;;;;5078339;28;19929;-55
2023/11/17 15:11:21;;;;;;;;;;;;;;;;;;5085061;28;19925;-56
2023/11/17 15:13:49;;;;;;;;;;;;;;;;;;5090954;28;19993;-56
2023/11/17 15:16:17;;;;;;;;;;;;;;;;;;5087394;28;19928;-55
2023/11/17 15:18:45;;;;;;;;;;;;;;;;;;5085913;28;19961;-55
2023/11/17 15:21:18;;;;;;;;;;;;;;;;;;5083156;28;19939;-58
2023/11/17 15:23:45;;;;;;;;;;;;;;;;;;5090260;28;19931;-57
2023/11/17 15:26:11;;;;;;;;;;;;;;;;;;5085729;28;19963;-54
2023/11/17 15:28:38;;;;;;;;;;;;;;;;;;5092761;28;19924;-54
2023/11/17 15:31:09;;;;;;;;;;;;;;;;;;5085492;28;19930;-56
2023/11/17 15:33:36;;;;;;;;;;;;;;;;;;5081573;28;19982;-56
2023/11/17 15:36:04;;;;;;;;;;;;;;;;;;5078166;28;19978;-54
2023/11/17 15:38:32;;;;;;;;;;;;;;;;;;5080437;28;19924;-54
2023/11/17 15:40:58;;;;;;;;;;;;;;;;;;5092332;28;20002;-53
2023/11/17 15:43:25;;;;;;;;;;;;;;;;;;5092019;28;19928;-54
2023/11/17 15:45:52;;;;;;;;;;;;;;;;;;5091367;28;19924;-54
2023/11/17 15:48:18;;;;;;;;;;;;;;;;;;5094166;28;19924;-54
2023/11/17 15:50:45;;;;;;;;;;;;;;;;;;5083508;28;19924;-55
2023/11/17 15:53:11;;;;;;;;;;;;;;;;;;5081882;28;19924;-53
2023/11/17 15:55:39;;;;;;;;;;;;;;;;;;5082813;28;20386;-56
2023/11/17 15:58:07;;;;;;;;;;;;;;;;;;5081722;28;19924;-57
2023/11/17 16:00:35;;;;;;;;;;;;;;;;;;5079927;28;19960;-56
2023/11/17 16:03:02;;;;;;;;;;;;;;;;;;5084042;28;19925;-53
2023/11/17 16:05:29;;;;;;;;;;;;;;;;;;5082696;28;19924;-55
2023/11/17 16:07:55;;;;;;;;;;;;;;;;;;5084338;28;20375;-55
2023/11/17 16:10:22;;;;;;;;;;;;;;;;;;5087377;28;19924;-63
2023/11/17 16:12:51;;;;;;;;;;;;;;;;;;5092771;28;19929;-63
2023/11/17 16:15:17;;;;;;;;;;;;;;;;;;5091333;28;19934;-60
2023/11/17 16:17:43;;;;;;;;;;;;;;;;;;5089688;28;19924;-61
2023/11/17 16:20:13;;;;;;;;;;;;;;;;;;5091002;28;19959;-62
2023/11/17 16:22:41;;;;;;;;;;;;;;;;;;5089716;28;20394;-61
2023/11/17 16:25:10;;;;;;;;;;;;;;;;;;5091086;28;19928;-59
2023/11/17 16:27:37;;;;;;;;;;;;;;;;;;5090029;28;20429;-61
2023/11/17 16:30:05;;;;;;;;;;;;;;;;;;5084571;28;19931;-61
2023/11/17 16:32:31;;;;;;;;;;;;;;;;;;5092055;28;20407;-60
2023/11/17 16:34:58;;;;;;;;;;;;;;;;;;5082973;28;20024;-62
2023/11/17 16:37:25;;;;;;;;;;;;;;;;;;5091408;28;20390;-62
2023/11/17 16:39:51;;;;;;;;;;;;;;;;;;5091159;28;19935;-61
2023/11/17 16:42:18;;;;;;;;;;;;;;;;;;5091524;28;19931;-63
2023/11/17 16:44:44;;;;;;;;;;;;;;;;;;5090358;28;20495;-62
2023/11/17 16:47:13;;;;;;;;;;;;;;;;;;5090786;28;20023;-60
2023/11/17 16:49:41;;;;;;;;;;;;;;;;;;5089813;28;19924;-62